Buttonwillow, CA

12:26 PM PDT on August 30, 2014 (GMT -0700)
Grand Island | Change Station
CLOSE
Current Station
Personal Weather Station
Location: Bakersfield, CA
Elevation: 361 ft
Nearby Weather Stations

Elev 361 ft 35.34 °N, 119.15 °W | Updated 12 minutes ago

Clear
Clear
92.4 °F
Feels Like 89 °F
N
0.0
Wind Variable Wind from SW
Gusts 6.0 mph

Today
High -- | Low -- °F
--% Chance of Precip.
Yesterday
High -- | Low -- °F
Precip. -- in
6:28 AM 7:27 PM
Waxing Crescent, 24% visible
Pressure 29.86 in
Visibility 10.0 miles
Clouds Clear
Heat Index 89 °F
Dew Point 48 °F
Humidity 22%
Rainfall 0.00 in
Snow Depth Not available.
UV 10 out of 12
Pollen 9.80 out of 12
Air Quality Not available.
Flu Activity Not available.
METAR KBFL 301854Z 34005KT 10SM CLR 32/07 A2988 RMK AO2 SLP112 T03220072 $

More Conditions Fewer Conditions

Pressure 29.86 in
Visibility 10.0 miles
Clouds Clear
Heat Index 89 °F
Dew Point 48 °F
Humidity 22%
Rainfall 0.00 in
Snow Depth Not available.
UV 10 out of 12
Pollen 9.80 out of 12
Air Quality Not available.
Flu Activity Not available.
METAR KBFL 301854Z 34005KT 10SM CLR 32/07 A2988 RMK AO2 SLP112 T03220072 $

More Conditions Fewer Conditions

10-Day Weather Forecast

Almanac

Astronomy

Aug. 30, 2014 Rise Set
Actual Time 6:28 AM PDT 7:27 PM PDT
Civil Twilight 6:02 AM PDT 7:53 PM PDT
Nautical Twilight 5:31 AM PDT 8:24 PM PDT
Astronomical Twilight 4:59 AM PDT 8:56 PM PDT
Moon 11:09 AM PDT 10:17 PM PDT
Length of Visible Light 13h 50m
Length of Day
12h 58m
Tomorrow will be 2m 7s shorter.
Waxing Crescent, 24% of the Moon is Illuminated
Today
Waxing Crescent
Sep 2
First Quarter
Sep 8
Full
Sep 15
Last Quarter
Sep 24
New

Today's Extremes

State Highs State Lows

Community

WunderPhotos

Upload Photos

1,748,608 photos uploaded!

WunderBlogs® & News

Nearby

Air Quality

  Air Quality AQ Index Pollutant
Saturday Moderate
PM10
Sunday Moderate
PM10
Monday Moderate
PM10
Tuesday Moderate
PM10
Wednesday Moderate
PM10

Snow Depth

Station Depth Elevation
Leavitt Meadows 1 in 7200 ft
Summit Meadow 0 in 9122 ft
Monitor Pass 0 in 8350 ft
Hagan's Meadow 0 in 8000 ft
Rubicon #2 0 in 7500 ft

Earthquake Activity

City Distance Mag. Time & Date
Malibu, California 117 miles 2.5 8:11 AM PDT
2014-08-30
Ridgemark, California 137 miles 3.4 4:32 PM PDT
2014-08-29
Ridgemark, California 137 miles 3.0 2:44 PM PDT
2014-08-29
Orange Cove, California 84 miles 2.5 7:48 AM PDT
2014-08-29
Minimum magnitude displayed is 2.5.

Coastal Water Temperatures

Place Temperature
No Stations Reporting

Nearby Weather Stations